Wetterdaten: Woche 21.12.20 - 27.12.20 (KW52)
Datum Zeit Temp. A. Feuchte A. Luftdruck Regen Wind Richtung Taupunkt Windchill Windben
21.12.2020 00:00 2,8 C 83 % 1026,6 hPa 0,0 l/m 0,1 km/h N 0,2 C 2,8 C 1,2 km/h
21.12.2020 01:00 2,7 C 83 % 1026,7 hPa 0,0 l/m 0,0 km/h N 0,1 C 2,7 C 0,4 km/h
21.12.2020 02:00 2,5 C 83 % 1027,1 hPa 0,0 l/m 0,0 km/h N -0,1 C 2,5 C 0,8 km/h
21.12.2020 03:00 2,3 C 83 % 1027,3 hPa 0,0 l/m 0,0 km/h N -0,3 C 2,3 C 0,0 km/h
21.12.2020 04:00 1,9 C 83 % 1027,3 hPa 0,0 l/m 0,0 km/h N -0,6 C 1,9 C 0,0 km/h
21.12.2020 05:00 1,6 C 83 % 1027,5 hPa 0,0 l/m 0,0 km/h N -1,0 C 1,6 C 0,0 km/h
21.12.2020 06:00 1,7 C 83 % 1027,7 hPa 0,0 l/m 0,0 km/h N -0,8 C 1,7 C 0,0 km/h
21.12.2020 07:00 1,8 C 83 % 1027,8 hPa 0,0 l/m 0,0 km/h N -0,8 C 1,8 C 0,0 km/h
21.12.2020 08:00 1,8 C 83 % 1028,3 hPa 0,0 l/m 0,0 km/h N -0,8 C 1,8 C 0,0 km/h
21.12.2020 09:00 2,1 C 83 % 1028,1 hPa 0,0 l/m 0,0 km/h N -0,5 C 2,1 C 0,0 km/h
21.12.2020 10:00 2,8 C 83 % 1027,9 hPa 0,0 l/m 0,1 km/h N 0,2 C 2,8 C 2,4 km/h
21.12.2020 11:00 3,5 C 83 % 1027,6 hPa 0,0 l/m 0,0 km/h N 0,9 C 3,5 C 0,8 km/h
21.12.2020 12:00 3,8 C 83 % 1027,4 hPa 0,0 l/m 0,0 km/h N 1,1 C 3,8 C 0,0 km/h
21.12.2020 13:00 4,5 C 82 % 1027,2 hPa 0,0 l/m 0,1 km/h N 1,7 C 4,5 C 2,8 km/h
21.12.2020 14:00 4,5 C 81 % 1026,9 hPa 0,0 l/m 0,0 km/h N 1,6 C 4,5 C 0,4 km/h
21.12.2020 15:00 4,0 C 82 % 1026,9 hPa 0,0 l/m 0,0 km/h N 1,2 C 4,0 C 0,0 km/h
21.12.2020 16:00 3,8 C 83 % 1026,9 hPa 0,0 l/m 0,1 km/h N 1,1 C 3,8 C 2,4 km/h
21.12.2020 17:00 3,6 C 83 % 1026,6 hPa 0,0 l/m 0,1 km/h N 1,0 C 3,6 C 4,0 km/h
21.12.2020 18:00 3,6 C 83 % 1026,3 hPa 0,0 l/m 0,0 km/h N 1,0 C 3,6 C 0,4 km/h
21.12.2020 19:00 3,3 C 83 % 1026,0 hPa 0,0 l/m 0,1 km/h N 0,7 C 3,3 C 2,0 km/h
21.12.2020 20:00 3,1 C 83 % 1025,6 hPa 0,0 l/m 0,0 km/h N 0,5 C 3,1 C 2,8 km/h
21.12.2020 21:00 2,8 C 83 % 1025,3 hPa 0,0 l/m 0,1 km/h N 0,2 C 2,8 C 3,2 km/h
21.12.2020 22:00 2,7 C 83 % 1024,6 hPa 0,0 l/m 0,0 km/h N 0,1 C 2,7 C 2,8 km/h
21.12.2020 23:00 2,3 C 83 % 1024,0 hPa 0,0 l/m 0,1 km/h N -0,3 C 2,3 C 2,4 km/h
22.12.2020 00:00 2,0 C 83 % 1023,6 hPa 0,0 l/m 0,0 km/h N -0,6 C 2,0 C 1,2 km/h
22.12.2020 01:00 2,0 C 83 % 1023,2 hPa 0,0 l/m 0,0 km/h N -0,5 C 2,0 C 1,2 km/h
22.12.2020 02:00 2,3 C 83 % 1023,2 hPa 0,0 l/m 0,0 km/h N -0,3 C 2,3 C 0,4 km/h
22.12.2020 03:00 2,4 C 83 % 1022,8 hPa 0,0 l/m 0,0 km/h N -0,2 C 2,4 C 0,4 km/h
22.12.2020 04:00 2,5 C 83 % 1022,5 hPa 0,3 l/m 0,0 km/h N -0,1 C 2,5 C 0,0 km/h
22.12.2020 05:00 2,4 C 83 % 1022,1 hPa 0,0 l/m 0,0 km/h N -0,2 C 2,4 C 0,0 km/h
22.12.2020 06:00 2,2 C 83 % 1021,9 hPa 0,0 l/m 0,0 km/h N -0,4 C 2,2 C 0,0 km/h
22.12.2020 07:00 2,2 C 83 % 1021,9 hPa 0,0 l/m 0,0 km/h N -0,4 C 2,2 C 0,0 km/h
22.12.2020 08:00 2,4 C 83 % 1021,9 hPa 0,3 l/m 0,0 km/h N -0,2 C 2,4 C 0,0 km/h
22.12.2020 09:00 2,7 C 83 % 1021,7 hPa 0,3 l/m 0,1 km/h N 0,1 C 2,7 C 4,8 km/h
22.12.2020 10:00 2,8 C 83 % 1021,4 hPa 0,3 l/m 0,0 km/h N 0,3 C 2,8 C 1,6 km/h
22.12.2020 11:00 3,4 C 82 % 1020,6 hPa 0,0 l/m 0,0 km/h N 0,6 C 3,4 C 1,2 km/h
22.12.2020 12:00 3,8 C 82 % 1020,2 hPa 0,0 l/m 0,0 km/h N 1,1 C 3,8 C 0,4 km/h
22.12.2020 13:00 4,3 C 82 % 1019,7 hPa 0,0 l/m 0,0 km/h N 1,5 C 4,3 C 1,6 km/h
22.12.2020 14:00 4,6 C 83 % 1019,3 hPa 0,0 l/m 0,0 km/h N 2,0 C 4,6 C 0,8 km/h
22.12.2020 15:00 4,8 C 83 % 1019,2 hPa 1,3 l/m 0,0 km/h N 2,1 C 4,8 C 1,6 km/h
22.12.2020 16:00 4,9 C 82 % 1019,6 hPa 0,5 l/m 0,0 km/h N 2,1 C 4,9 C 0,0 km/h
22.12.2020 17:00 4,9 C 82 % 1019,7 hPa 1,0 l/m 0,0 km/h N 2,1 C 4,9 C 0,0 km/h
22.12.2020 18:00 5,1 C 82 % 1019,9 hPa 0,5 l/m 0,0 km/h N 2,3 C 5,1 C 0,0 km/h
22.12.2020 19:00 5,4 C 82 % 1019,8 hPa 0,0 l/m 0,2 km/h N 2,6 C 5,4 C 6,4 km/h
22.12.2020 20:00 9,9 C 84 % 1019,4 hPa 0,0 l/m 4,4 km/h N 7,2 C 9,9 C 17,3 km/h
22.12.2020 21:00 12,1 C 81 % 1019,3 hPa 0,0 l/m 2,9 km/h N 9,0 C 12,1 C 14,9 km/h
22.12.2020 22:00 13,0 C 81 % 1019,2 hPa 0,0 l/m 3,6 km/h N 9,8 C 13,0 C 17,7 km/h
22.12.2020 23:00 13,2 C 81 % 1019,2 hPa 0,0 l/m 2,3 km/h N 10,0 C 13,2 C 17,7 km/h
23.12.2020 00:00 13,3 C 80 % 1018,8 hPa 0,0 l/m 1,6 km/h N 9,9 C 13,3 C 10,4 km/h
23.12.2020 01:00 12,3 C 79 % 1018,6 hPa 0,0 l/m 0,2 km/h N 8,8 C 12,3 C 2,8 km/h
23.12.2020 02:00 9,9 C 81 % 1018,6 hPa 0,0 l/m 0,6 km/h N 6,7 C 9,9 C 5,2 km/h
23.12.2020 03:00 12,3 C 80 % 1018,2 hPa 0,0 l/m 1,2 km/h N 9,0 C 12,3 C 6,4 km/h
23.12.2020 04:00 12,2 C 80 % 1017,9 hPa 0,0 l/m 0,2 km/h N 8,8 C 12,2 C 2,4 km/h
23.12.2020 05:00 9,7 C 79 % 1017,9 hPa 0,0 l/m 0,0 km/h N 6,3 C 9,7 C 0,0 km/h
23.12.2020 06:00 7,4 C 81 % 1017,7 hPa 0,0 l/m 0,0 km/h N 4,3 C 7,4 C 0,0 km/h
23.12.2020 07:00 6,6 C 82 % 1017,6 hPa 0,0 l/m 0,0 km/h N 3,8 C 6,6 C 0,0 km/h
23.12.2020 08:00 6,5 C 82 % 1017,4 hPa 0,0 l/m 0,0 km/h N 3,6 C 6,5 C 0,0 km/h
23.12.2020 09:00 7,5 C 81 % 1017,2 hPa 0,0 l/m 0,0 km/h N 4,5 C 7,5 C 0,0 km/h
23.12.2020 10:00 8,7 C 82 % 1016,8 hPa 0,0 l/m 0,0 km/h N 5,8 C 8,7 C 0,0 km/h
23.12.2020 11:00 9,9 C 82 % 1015,9 hPa 0,0 l/m 0,0 km/h N 6,9 C 9,9 C 0,0 km/h
23.12.2020 12:00 10,4 C 82 % 1015,5 hPa 0,0 l/m 0,0 km/h N 7,5 C 10,4 C 0,0 km/h
23.12.2020 13:00 10,6 C 82 % 1015,2 hPa 0,0 l/m 0,0 km/h N 7,7 C 10,6 C 0,0 km/h
23.12.2020 14:00 10,8 C 82 % 1014,8 hPa 0,0 l/m 0,0 km/h N 7,8 C 10,8 C 0,0 km/h
23.12.2020 15:00 10,3 C 82 % 1014,7 hPa 0,0 l/m 0,0 km/h N 7,3 C 10,3 C 0,0 km/h
23.12.2020 16:00 9,2 C 82 % 1014,7 hPa 0,0 l/m 0,0 km/h N 6,3 C 9,2 C 0,0 km/h
23.12.2020 17:00 8,5 C 82 % 1014,6 hPa 0,0 l/m 0,0 km/h N 5,6 C 8,5 C 0,0 km/h
23.12.2020 18:00 7,9 C 82 % 1014,1 hPa 0,0 l/m 0,0 km/h N 5,0 C 7,9 C 0,0 km/h
23.12.2020 19:00 7,8 C 82 % 1014,1 hPa 0,0 l/m 0,0 km/h N 4,9 C 7,8 C 0,0 km/h
23.12.2020 20:00 7,8 C 82 % 1013,5 hPa 0,0 l/m 0,0 km/h N 4,9 C 7,8 C 0,0 km/h
23.12.2020 21:00 7,8 C 82 % 1012,9 hPa 0,0 l/m 0,0 km/h N 4,9 C 7,8 C 0,0 km/h
23.12.2020 22:00 7,6 C 82 % 1012,5 hPa 0,0 l/m 0,0 km/h N 4,7 C 7,6 C 0,0 km/h
23.12.2020 23:00 7,3 C 82 % 1012,3 hPa 0,3 l/m 0,0 km/h N 4,4 C 7,3 C 0,0 km/h
24.12.2020 00:00 7,0 C 83 % 1012,1 hPa 0,0 l/m 0,0 km/h N 4,2 C 7,0 C 0,0 km/h
24.12.2020 01:00 6,8 C 83 % 1012,0 hPa 0,0 l/m 0,0 km/h N 4,1 C 6,8 C 0,0 km/h
24.12.2020 02:00 7,0 C 83 % 1011,8 hPa 0,0 l/m 0,0 km/h N 4,3 C 7,0 C 0,0 km/h
24.12.2020 03:00 7,1 C 83 % 1011,1 hPa 0,0 l/m 0,0 km/h N 4,4 C 7,1 C 0,0 km/h
24.12.2020 04:00 6,7 C 83 % 1010,6 hPa 0,0 l/m 0,0 km/h N 4,0 C 6,7 C 0,0 km/h
24.12.2020 05:00 6,3 C 83 % 1010,4 hPa 0,0 l/m 0,0 km/h N 3,6 C 6,3 C 0,0 km/h
24.12.2020 06:00 6,2 C 83 % 1010,4 hPa 0,0 l/m 0,0 km/h N 3,5 C 6,2 C 0,0 km/h
24.12.2020 07:00 6,2 C 83 % 1010,2 hPa 0,0 l/m 0,0 km/h N 3,5 C 6,2 C 0,0 km/h
24.12.2020 08:00 6,3 C 84 % 1010,3 hPa 0,0 l/m 0,0 km/h N 3,7 C 6,3 C 0,0 km/h
24.12.2020 09:00 6,5 C 83 % 1010,8 hPa 1,8 l/m 0,0 km/h N 3,8 C 6,5 C 0,0 km/h
24.12.2020 10:00 6,5 C 84 % 1011,0 hPa 2,1 l/m 0,0 km/h N 4,0 C 6,5 C 0,8 km/h
24.12.2020 11:00 8,5 C 84 % 1010,4 hPa 0,8 l/m 2,5 km/h N 5,9 C 8,5 C 11,7 km/h
24.12.2020 12:00 8,7 C 83 % 1009,6 hPa 0,3 l/m 4,1 km/h N 6,0 C 8,7 C 19,3 km/h
24.12.2020 13:00 9,1 C 80 % 1008,9 hPa 0,0 l/m 4,5 km/h N 5,9 C 9,1 C 24,1 km/h
24.12.2020 14:00 9,5 C 69 % 1008,6 hPa 0,0 l/m 2,2 km/h N 4,1 C 9,5 C 14,5 km/h
24.12.2020 15:00 9,8 C 64 % 1008,4 hPa 0,0 l/m 3,0 km/h N 3,3 C 9,8 C 18,5 km/h
24.12.2020 16:00 9,8 C 66 % 1008,5 hPa 0,0 l/m 3,9 km/h N 3,7 C 9,8 C 18,9 km/h
24.12.2020 17:00 9,5 C 69 % 1008,5 hPa 0,0 l/m 1,1 km/h N 4,0 C 9,5 C 10,9 km/h
24.12.2020 18:00 9,3 C 70 % 1008,3 hPa 0,0 l/m 1,7 km/h N 4,1 C 9,3 C 14,9 km/h
24.12.2020 19:00 9,5 C 69 % 1008,8 hPa 0,0 l/m 3,0 km/h N 4,1 C 9,5 C 23,3 km/h
24.12.2020 20:00 9,2 C 71 % 1008,9 hPa 0,0 l/m 2,9 km/h N 4,3 C 9,2 C 15,7 km/h
24.12.2020 21:00 9,1 C 72 % 1008,6 hPa 0,0 l/m 3,6 km/h N 4,3 C 9,1 C 18,1 km/h
24.12.2020 22:00 8,9 C 72 % 1009,0 hPa 0,0 l/m 1,5 km/h N 4,2 C 8,9 C 10,9 km/h
24.12.2020 23:00 8,6 C 75 % 1009,0 hPa 0,0 l/m 2,7 km/h N 4,4 C 8,6 C 12,5 km/h
25.12.2020 00:00 8,5 C 75 % 1008,9 hPa 0,0 l/m 1,5 km/h N 4,4 C 8,5 C 9,3 km/h
25.12.2020 01:00 8,2 C 76 % 1008,8 hPa 0,0 l/m 0,4 km/h N 4,3 C 8,2 C 4,4 km/h
25.12.2020 02:00 7,6 C 78 % 1009,4 hPa 0,0 l/m 2,1 km/h N 3,9 C 7,6 C 7,6 km/h
25.12.2020 03:00 6,5 C 76 % 1009,9 hPa 0,0 l/m 2,8 km/h N 2,6 C 6,5 C 8,4 km/h
25.12.2020 04:00 5,2 C 77 % 1010,4 hPa 0,0 l/m 2,4 km/h N 1,6 C 5,2 C 10,0 km/h
25.12.2020 05:00 4,3 C 78 % 1010,7 hPa 0,0 l/m 1,4 km/h N 0,9 C 4,3 C 8,9 km/h
25.12.2020 06:00 4,1 C 79 % 1011,1 hPa 0,0 l/m 0,4 km/h N 0,8 C 4,1 C 4,8 km/h
25.12.2020 07:00 4,1 C 79 % 1011,7 hPa 0,0 l/m 0,3 km/h N 0,8 C 4,1 C 4,4 km/h
25.12.2020 08:00 4,1 C 80 % 1012,2 hPa 0,0 l/m 1,6 km/h N 1,0 C 4,1 C 8,4 km/h
25.12.2020 09:00 4,1 C 80 % 1012,7 hPa 0,0 l/m 3,2 km/h N 1,0 C 4,1 C 9,6 km/h
25.12.2020 10:00 4,4 C 81 % 1013,1 hPa 0,0 l/m 5,1 km/h N 1,4 C 4,4 C 16,1 km/h
25.12.2020 11:00 4,5 C 81 % 1013,4 hPa 0,0 l/m 6,2 km/h N 1,5 C 4,3 C 19,7 km/h
25.12.2020 12:00 4,1 C 81 % 1013,8 hPa 0,0 l/m 6,0 km/h N 1,2 C 3,9 C 16,1 km/h
25.12.2020 13:00 3,9 C 82 % 1014,2 hPa 0,3 l/m 3,7 km/h N 1,1 C 3,9 C 13,7 km/h
25.12.2020 14:00 3,5 C 82 % 1014,3 hPa 0,3 l/m 4,7 km/h N 0,7 C 3,5 C 12,9 km/h
25.12.2020 15:00 3,4 C 82 % 1014,8 hPa 0,0 l/m 4,9 km/h N 0,6 C 3,4 C 16,5 km/h
25.12.2020 16:00 3,4 C 82 % 1015,4 hPa 0,0 l/m 4,5 km/h N 0,6 C 3,4 C 13,7 km/h
25.12.2020 17:00 3,2 C 82 % 1016,1 hPa 0,3 l/m 3,7 km/h N 0,4 C 3,2 C 12,1 km/h
25.12.2020 18:00 3,1 C 82 % 1016,5 hPa 0,0 l/m 4,0 km/h N 0,4 C 3,1 C 14,1 km/h
25.12.2020 19:00 3,3 C 82 % 1017,1 hPa 0,0 l/m 5,1 km/h N 0,5 C 3,3 C 14,9 km/h
25.12.2020 20:00 3,0 C 82 % 1017,9 hPa 0,0 l/m 2,8 km/h N 0,2 C 3,0 C 10,9 km/h
25.12.2020 21:00 2,8 C 83 % 1018,5 hPa 0,0 l/m 4,7 km/h N 0,2 C 2,8 C 13,7 km/h
25.12.2020 22:00 2,5 C 82 % 1019,3 hPa 0,0 l/m 5,8 km/h N -0,3 C 2,4 C 18,1 km/h
25.12.2020 23:00 2,3 C 80 % 1019,6 hPa 0,0 l/m 6,1 km/h N -0,8 C 2,3 C 17,7 km/h
26.12.2020 00:00 2,3 C 75 % 1019,8 hPa 0,0 l/m 6,7 km/h N -1,7 C 2,0 C 20,9 km/h
26.12.2020 01:00 2,2 C 74 % 1019,9 hPa 0,0 l/m 3,5 km/h N -2,0 C 2,2 C 14,1 km/h
26.12.2020 02:00 2,0 C 75 % 1020,2 hPa 0,0 l/m 2,9 km/h N -2,1 C 2,0 C 14,1 km/h
26.12.2020 03:00 1,7 C 70 % 1020,4 hPa 0,0 l/m 4,7 km/h N -3,3 C 1,7 C 17,7 km/h
26.12.2020 04:00 1,6 C 72 % 1021,0 hPa 0,0 l/m 3,0 km/h N -2,8 C 1,6 C 12,9 km/h
26.12.2020 05:00 1,3 C 75 % 1021,1 hPa 0,0 l/m 5,2 km/h N -2,6 C 1,3 C 17,7 km/h
26.12.2020 06:00 1,1 C 74 % 1021,6 hPa 0,0 l/m 2,3 km/h N -3,0 C 1,1 C 13,7 km/h
26.12.2020 07:00 1,3 C 76 % 1022,6 hPa 0,0 l/m 3,1 km/h N -2,6 C 1,3 C 14,1 km/h
26.12.2020 08:00 1,3 C 76 % 1023,5 hPa 0,0 l/m 3,5 km/h N -2,5 C 1,3 C 14,1 km/h
26.12.2020 09:00 1,3 C 74 % 1024,2 hPa 0,0 l/m 5,7 km/h N -2,9 C 1,2 C 16,9 km/h
26.12.2020 10:00 1,6 C 65 % 1024,7 hPa 0,0 l/m 7,9 km/h N -4,4 C 0,2 C 23,3 km/h
26.12.2020 11:00 1,9 C 59 % 1024,5 hPa 0,0 l/m 7,1 km/h N -5,2 C 1,3 C 25,4 km/h
26.12.2020 12:00 2,2 C 56 % 1024,5 hPa 0,0 l/m 4,9 km/h N -5,7 C 2,2 C 21,3 km/h
26.12.2020 13:00 2,3 C 58 % 1024,1 hPa 0,0 l/m 7,3 km/h N -5,2 C 1,0 C 22,9 km/h
26.12.2020 14:00 2,3 C 61 % 1024,0 hPa 0,0 l/m 6,1 km/h N -4,3 C 1,9 C 19,7 km/h
26.12.2020 15:00 2,2 C 59 % 1024,5 hPa 0,0 l/m 4,6 km/h N -5,0 C 2,2 C 17,7 km/h
26.12.2020 16:00 1,5 C 59 % 1024,6 hPa 0,0 l/m 4,9 km/h N -5,7 C 1,5 C 17,7 km/h
26.12.2020 17:00 1,0 C 60 % 1024,6 hPa 0,0 l/m 5,8 km/h N -5,9 C 0,7 C 17,3 km/h
26.12.2020 18:00 0,6 C 64 % 1024,5 hPa 0,0 l/m 3,5 km/h N -5,5 C 0,6 C 14,9 km/h
26.12.2020 19:00 0,3 C 66 % 1024,4 hPa 0,0 l/m 5,4 km/h N -5,3 C -0,1 C 17,7 km/h
26.12.2020 20:00 0,2 C 67 % 1024,5 hPa 0,0 l/m 3,2 km/h N -5,3 C -0,2 C 11,7 km/h
26.12.2020 21:00 -0,3 C 68 % 1024,3 hPa 0,0 l/m 1,3 km/h N -5,4 C -0,3 C 7,3 km/h
26.12.2020 22:00 -1,0 C 69 % 1024,0 hPa 0,0 l/m 0,0 km/h N -5,9 C -1,0 C 0,4 km/h
26.12.2020 23:00 -1,5 C 72 % 1023,2 hPa 0,0 l/m 0,1 km/h N -5,9 C -1,5 C 1,6 km/h
27.12.2020 00:00 -2,5 C 74 % 1022,2 hPa 0,0 l/m 0,0 km/h N -6,5 C -2,5 C 0,0 km/h
27.12.2020 01:00 -3,0 C 76 % 1021,3 hPa 0,0 l/m 0,0 km/h N -6,6 C -3,0 C 0,0 km/h
27.12.2020 02:00 -3,9 C 77 % 1020,9 hPa 0,0 l/m 0,0 km/h N -7,3 C -3,9 C 0,0 km/h
27.12.2020 03:00 -4,9 C 79 % 1020,0 hPa 0,0 l/m 0,0 km/h N -8,0 C -4,9 C 0,0 km/h
27.12.2020 04:00 -5,4 C 81 % 1019,3 hPa 0,0 l/m 0,0 km/h N -8,1 C -5,4 C 0,0 km/h
27.12.2020 05:00 -5,2 C 81 % 1018,4 hPa 0,0 l/m 0,0 km/h N -7,9 C -5,2 C 0,0 km/h
27.12.2020 06:00 -5,3 C 82 % 1017,5 hPa 0,0 l/m 0,0 km/h N -7,9 C -5,3 C 0,0 km/h
27.12.2020 07:00 -4,8 C 82 % 1016,2 hPa 0,0 l/m 0,0 km/h N -7,3 C -4,8 C 0,0 km/h
27.12.2020 08:00 -4,4 C 82 % 1016,0 hPa 0,0 l/m 0,0 km/h N -7,1 C -4,4 C 0,0 km/h
27.12.2020 09:00 -3,0 C 81 % 1015,3 hPa 0,0 l/m 0,2 km/h N -5,9 C -3,0 C 2,0 km/h
27.12.2020 10:00 0,0 C 70 % 1013,8 hPa 0,0 l/m 1,7 km/h N -4,9 C 0,0 C 8,0 km/h
27.12.2020 11:00 1,1 C 64 % 1012,0 hPa 0,0 l/m 2,8 km/h N -4,9 C 1,1 C 10,1 km/h
27.12.2020 12:00 1,6 C 65 % 1010,3 hPa 0,0 l/m 2,4 km/h N -4,3 C 1,6 C 11,7 km/h
27.12.2020 13:00 1,9 C 66 % 1008,3 hPa 0,0 l/m 2,9 km/h N -3,8 C 1,9 C 14,1 km/h
27.12.2020 14:00 1,8 C 66 % 1006,8 hPa 0,0 l/m 4,6 km/h N -4,0 C 1,8 C 16,9 km/h
27.12.2020 15:00 1,3 C 67 % 1005,6 hPa 0,0 l/m 3,2 km/h N -4,2 C 1,3 C 12,9 km/h
27.12.2020 16:00 0,5 C 71 % 1004,5 hPa 0,0 l/m 4,0 km/h N -4,2 C 0,5 C 16,1 km/h
27.12.2020 17:00 0,1 C 74 % 1004,0 hPa 0,0 l/m 6,0 km/h N -4,0 C -0,2 C 16,9 km/h
27.12.2020 18:00 0,1 C 75 % 1003,0 hPa 0,0 l/m 5,5 km/h N -3,9 C 0,1 C 15,7 km/h
27.12.2020 19:00 0,1 C 78 % 1002,3 hPa 0,0 l/m 5,8 km/h N -3,4 C 0,1 C 15,7 km/h
27.12.2020 20:00 -0,1 C 81 % 1002,0 hPa 0,0 l/m 4,4 km/h N -3,0 C -0,1 C 10,9 km/h
27.12.2020 21:00 0,0 C 81 % 1000,8 hPa 0,0 l/m 0,5 km/h N -2,8 C 0,0 C 6,0 km/h
27.12.2020 22:00 -0,1 C 82 % 999,5 hPa 0,0 l/m 2,1 km/h N -2,8 C -0,1 C 8,4 km/h
27.12.2020 23:00 -0,1 C 83 % 998,0 hPa 0,0 l/m 2,5 km/h N -2,7 C -0,1 C 8,8 km/h
Min-Datum _ 27.12.20 26.12.20 27.12.20 - 21.12.20 - 27.12.20 27.12.20 21.12.20
_ Min-Zeit 04:30 12:15 23:45 - 00:00 - 04:00 06:00 00:00
Minimum _ -5,6 C 55 % 997,3 hPa - 0,0 km/h - -8,3 C -5,6 C 0,0 km/h
Max-Datum _ 22.12.20 22.12.20 21.12.20 24.12.20 26.12.20 - 22.12.20 22.12.20 24.12.20
_ Max-Zeit 23:00 20:15 08:45 10:00 10:45 - 23:00 23:00 19:15
Maximum _ 13,3 C 84 % 1028,4 hPa 2,1 l/m 9,3 km/h
N
- 10,1 C 13,3 C 33,8 km/h
N
Durchschnitt _ 4,2 C 78 % 1017,3 hPa #10,4 l/m 1,7 km/h N 0,7 C 4,1 C 7,1 km/h